MOUNT RAINIER
GEOLOGY & WEATHER
Hello guest! [ Log In ]
morageology.com Water Data for Camp Muir at Mount Rainier National Park

Camp Muir at Mount Rainier National Park

Date Range to view:
 
[ Graphical View | Weather History ]

View this data in a CSV Format

GMT Date/Time Local Date/Time Air Temperature (°C) Dew Point Temperature (°C) Relative Humidity (%) Wind Direction (°) Wind Speed (mph) Wind Gust Speed (mph) Solar Radiation (w/m2) Battery (V)
2023-11-29 08:00:00 2023-11-29 00:00:00 -6.3556 -27.4942 17.0 253 4.86 7.77 1.33 13.7
2023-11-29 09:00:00 2023-11-29 01:00:00 -7.6722 -25.4823 22.5 252 7.05 12.71 1.21 13.7
2023-11-29 10:00:00 2023-11-29 02:00:00 -9.0889 -18.9754 44.6 249 6.53 12.00 1.04 13.6
2023-11-29 11:00:00 2023-11-29 03:00:00 -9.2000 -18.8430 45.5 261 7.58 12.71 1.27 13.6
2023-11-29 12:00:00 2023-11-29 04:00:00 -9.3556 -19.7883 42.5 252 24.52 36.01 1.16 13.6
2023-11-29 13:00:00 2023-11-29 05:00:00 -8.0444 -24.8869 24.5 267 17.69 28.24 1.19 13.5
2023-11-29 14:00:00 2023-11-29 06:00:00 -6.8000 -26.5700 19.1 271 9.85 24.00 1.36 13.5
2023-11-29 15:00:00 2023-11-29 07:00:00 -7.4000 -24.4370 24.3 269 4.11 12.00 2.09 13.5
2023-11-29 16:00:00 2023-11-29 08:00:00 -7.2056 -22.8348 27.6 271 0.43 2.12 78.99 13.5
2023-11-29 17:00:00 2023-11-29 09:00:00 -6.9111 -20.5670 32.8 272 0.44 3.53 182.60 13.7
2023-11-29 18:00:00 2023-11-29 10:00:00 -7.0889 -16.5406 46.9 316 1.09 8.47 53.43 15.0
2023-11-29 19:00:00 2023-11-29 11:00:00 -10.4000 -11.7375 89.9 208 1.96 7.77 280.50 15.0
2023-11-29 20:00:00 2023-11-29 12:00:00 -11.4833 -12.4685 92.4 222 2.98 9.88 293.00 15.1
2023-11-29 21:00:00 2023-11-29 13:00:00 -11.1944 -12.2631 91.8 192 2.02 7.06 292.50 15.0
2023-11-29 22:00:00 2023-11-29 14:00:00 -11.9889 -13.2262 90.5 76 3.35 8.47 189.80 15.0
2023-11-29 23:00:00 2023-11-29 15:00:00 -12.8611 -14.1705 89.9 56 1.40 4.94 94.70 15.0
2023-11-30 00:00:00 2023-11-29 16:00:00 -12.5667 -13.8794 89.9 223 0.00 0.00 17.56 14.2
2023-11-30 01:00:00 2023-11-29 17:00:00 -13.0944 -14.4966 89.2 173 0.00 0.00 0.88 14.0
2023-11-30 02:00:00 2023-11-29 18:00:00 -13.4411 -14.8937 88.8 21 0.00 0.00 0.17 14.0
2023-11-30 03:00:00 2023-11-29 19:00:00 -13.1889 -14.6172 89.0 312 0.00 0.00 0.45 13.9
2023-11-30 04:00:00 2023-11-29 20:00:00 -13.5289 -14.9394 89.1 29 0.00 0.00 0.42 13.9
2023-11-30 05:00:00 2023-11-29 21:00:00 -13.4600 -14.8850 89.0 14 0.00 0.00 0.28 13.8
2023-11-30 06:00:00 2023-11-29 22:00:00 -13.6889 -15.2068 88.3 15 0.00 0.00 0.23 13.8
2023-11-30 07:00:00 2023-11-29 23:00:00 -14.0317 -15.5724 88.1 30 1.59 4.24 0.23 13.8
2023-11-30 08:00:00 2023-11-30 00:00:00 -13.9428 -15.4573 88.3 26 1.92 5.65 0.14 13.7
2023-11-30 09:00:00 2023-11-30 01:00:00 -14.1367 -15.6760 88.1 28 2.06 5.65 0.09 13.7
2023-11-30 10:00:00 2023-11-30 02:00:00 -13.9967 -15.5242 88.2 20 3.96 6.35 0.23 13.6
2023-11-30 11:00:00 2023-11-30 03:00:00 -14.0011 -15.5423 88.1 40 2.87 5.65 0.11 13.6
2023-11-30 12:00:00 2023-11-30 04:00:00 -14.6522 -16.2530 87.6 35 3.21 7.06 0.14 13.6
2023-11-30 13:00:00 2023-11-30 05:00:00 -14.0117 -15.5527 88.1 34 4.16 7.77 0.17 13.5
2023-11-30 14:00:00 2023-11-30 06:00:00 -13.9406 -15.4551 88.3 11 3.04 8.47 0.14 13.5
2023-11-30 15:00:00 2023-11-30 07:00:00 -12.3000 -13.5476 90.4 284 5.01 18.36 0.51 13.5
2023-11-30 16:00:00 2023-11-30 08:00:00 -11.9667 -13.2315 90.3 250 11.87 19.06 16.85 13.5
2023-11-30 17:00:00 2023-11-30 09:00:00 -11.9889 -13.2399 90.4 254 5.29 11.30 71.08 13.4
2023-11-30 18:00:00 2023-11-30 10:00:00 -11.5667 -12.7676 90.8 245 8.96 21.18 194.80 13.5
2023-11-30 19:00:00 2023-11-30 11:00:00 -11.3611 -12.5642 90.8 217 20.61 29.65 204.60 13.5
2023-11-30 20:00:00 2023-11-30 12:00:00 -11.3722 -12.5615 90.9 252 17.65 25.42 273.60 13.6
2023-11-30 21:00:00 2023-11-30 13:00:00 -11.1167 -12.2949 91.0 245 18.95 28.24 259.20 13.6
2023-11-30 22:00:00 2023-11-30 14:00:00 -10.3667 -11.4566 91.7 261 25.48 34.59 128.40 13.8
2023-11-30 23:00:00 2023-11-30 15:00:00 -10.7889 -11.9021 91.5 241 29.62 37.42 49.29 13.8
2023-12-01 00:00:00 2023-11-30 16:00:00 -11.0778 -12.2291 91.2 255 33.91 40.95 10.42 13.8
2023-12-01 01:00:00 2023-11-30 17:00:00 -10.9611 -12.0863 91.4 261 31.61 45.18 0.51 13.7
2023-12-01 02:00:00 2023-11-30 18:00:00 -11.6944 -12.9760 90.2 255 32.10 46.60 0.25 13.7
2023-12-01 03:00:00 2023-11-30 19:00:00 -12.2611 -13.5364 90.2 279 7.27 30.36 0.28 13.6
2023-12-01 04:00:00 2023-11-30 20:00:00 -13.1222 -14.5104 89.3 38 3.38 7.77 0.25 13.6
2023-12-01 05:00:00 2023-11-30 21:00:00 -13.7000 -15.1630 88.7 47 4.20 13.41 0.37 13.6
2023-12-01 06:00:00 2023-11-30 22:00:00 -14.7889 -16.3741 87.7 26 3.27 9.88 0.31 13.5
2023-12-01 07:00:00 2023-11-30 23:00:00 -14.8128 -16.4250 87.5 10 7.53 36.01 0.31 13.5
2023-12-01 08:00:00 2023-12-01 00:00:00 -13.0444 -14.5846 88.2 274 20.03 45.89 0.23 13.5
2023-12-01 09:00:00 2023-12-01 01:00:00 -13.2944 -15.1662 85.8 264 32.96 60.72 0.37 13.4
2023-12-01 10:00:00 2023-12-01 02:00:00 -13.1722 -14.5325 89.5 266 44.01 68.48 0.48 13.4
2023-12-01 11:00:00 2023-12-01 03:00:00 -13.2611 -14.6749 89.1 261 53.44 74.13 0.34 13.4
2023-12-01 12:00:00 2023-12-01 04:00:00 -13.3000 -14.6996 89.2 260 41.38 53.66 0.59 13.3
2023-12-01 13:00:00 2023-12-01 05:00:00 -12.7333 -14.0715 89.7 222 40.25 62.83 0.54 13.3
2023-12-01 14:00:00 2023-12-01 06:00:00 -12.3111 -13.5722 90.3 228 60.25 88.30 0.57 13.3
2023-12-01 15:00:00 2023-12-01 07:00:00 -12.8944 -14.2580 89.5 209 56.83 73.42 0.93 13.2
2023-12-01 16:00:00 2023-12-01 08:00:00 -13.4794 -14.8769 89.2 204 55.48 76.25 49.01 13.2
2023-12-01 17:00:00 2023-12-01 09:00:00 -13.4094 -14.8078 89.2 204 39.02 76.25 48.08 13.2
2023-12-01 18:00:00 2023-12-01 10:00:00 -13.6961 -15.1318 88.9 206 33.17 55.77 63.63 13.3
2023-12-01 19:00:00 2023-12-01 11:00:00 -13.3672 -14.7660 89.2 210 37.02 62.13 53.21 13.4
2023-12-01 20:00:00 2023-12-01 12:00:00 -13.2167 -14.6037 89.3 205 42.60 67.07 68.34 13.4
2023-12-01 21:00:00 2023-12-01 13:00:00 -13.3872 -14.7994 89.1 208 44.93 77.66 81.70 13.5
2023-12-01 22:00:00 2023-12-01 14:00:00 -12.8167 -14.1538 89.7 209 29.56 69.89 93.00 13.5
2023-12-01 23:00:00 2023-12-01 15:00:00 -13.3822 -14.8082 89.0 225 26.74 75.54 33.40 13.6
2023-12-02 00:00:00 2023-12-01 16:00:00 -13.2500 -14.6503 89.2 218 34.51 64.25 7.23 13.5
2023-12-02 01:00:00 2023-12-01 17:00:00 -13.3278 -14.7271 89.2 221 35.64 60.01 0.37 13.5
2023-12-02 02:00:00 2023-12-01 18:00:00 -13.3278 -14.7407 89.1 214 24.94 38.83 0.31 13.4
2023-12-02 03:00:00 2023-12-01 19:00:00 -11.6833 -12.8967 90.7 213 47.10 72.72 0.42 13.4
2023-12-02 04:00:00 2023-12-01 20:00:00 -12.0167 -13.2674 90.4 236 52.83 72.72 0.54 13.3
2023-12-02 05:00:00 2023-12-01 21:00:00 -11.9444 -13.1959 90.4 226 43.93 72.72 0.68 13.3
2023-12-02 06:00:00 2023-12-01 22:00:00 -11.7833 -12.9956 90.7 211 37.90 58.60 0.65 13.3
2023-12-02 07:00:00 2023-12-01 23:00:00 -11.4611 -12.6495 90.9 209 47.06 73.42 0.62 13.2
2023-12-02 08:00:00 2023-12-02 00:00:00 -11.3389 -12.4876 91.2 211 53.94 67.07 0.54 13.2
2023-12-02 09:00:00 2023-12-02 01:00:00 -11.1611 -12.2980 91.3 215 58.81 76.95 0.82 13.2
2023-12-02 10:00:00 2023-12-02 02:00:00 -10.6722 -11.7457 91.8 215 71.80 98.80 0.82 13.2
2023-12-02 11:00:00 2023-12-02 03:00:00 -10.4222 -11.4844 91.9 214 73.17 98.10 1.19 13.1
2023-12-02 12:00:00 2023-12-02 04:00:00 -10.4222 -11.4844 91.9 215 77.41 104.50 1.04 13.1
2023-12-02 13:00:00 2023-12-02 05:00:00 -10.9611 -12.0727 91.5 216 77.22 101.00 0.96 13.1
2023-12-02 14:00:00 2023-12-02 06:00:00 -11.0167 -12.1277 91.5 214 66.93 89.00 1.07 13.0
2023-12-02 15:00:00 2023-12-02 07:00:00 -12.8944 -14.2580 89.5 213 43.10 84.70 1.04 13.0
2023-12-02 16:00:00 2023-12-02 08:00:00 -13.4072 -14.8192 89.1 213 36.12 84.70 60.38 13.0
2023-12-02 17:00:00 2023-12-02 09:00:00 -14.5544 -16.0473 88.4 214 34.93 67.07 293.60 13.2
2023-12-02 18:00:00 2023-12-02 10:00:00 -14.3306 -15.8263 88.4 213 47.63 76.25 447.50 14.6
2023-12-02 19:00:00 2023-12-02 11:00:00 -14.2856 -15.7819 88.4 215 49.25 75.54 444.60 15.2
2023-12-02 20:00:00 2023-12-02 12:00:00 -13.9267 -15.3731 88.8 213 57.59 93.20 130.60 15.1
2023-12-02 21:00:00 2023-12-02 13:00:00 -13.6278 -15.0371 89.1 212 56.18 88.30 128.60 14.7
2023-12-02 22:00:00 2023-12-02 14:00:00 -13.6050 -15.0009 89.2 213 52.64 86.10 66.43 14.6
2023-12-02 23:00:00 2023-12-02 15:00:00 -14.0117 -15.4843 88.6 215 61.14 96.70 54.99 14.1
2023-12-03 00:00:00 2023-12-02 16:00:00 -14.8156 -16.3594 88.0 216 50.63 83.30 12.82 14.0
2023-12-03 01:00:00 2023-12-02 17:00:00 -13.7750 -15.2370 88.7 215 40.81 74.13 0.03 13.9
2023-12-03 02:00:00 2023-12-02 18:00:00 -13.1222 -14.4695 89.6 214 37.74 74.13 0.03 13.8
2023-12-03 03:00:00 2023-12-02 19:00:00 -13.9122 -15.3588 88.8 214 23.51 41.65 0.14 13.8
2023-12-03 04:00:00 2023-12-02 20:00:00 -10.9333 -12.1271 90.9 212 12.19 33.89 0.09 13.8
2023-12-03 05:00:00 2023-12-02 21:00:00 -7.3444 -8.8317 89.1 210 14.57 35.30 0.48 13.7
2023-12-03 06:00:00 2023-12-02 22:00:00 -8.0611 -9.2145 91.4 214 12.79 31.06 0.45 13.7
2023-12-03 07:00:00 2023-12-02 23:00:00 -7.1611 -8.7229 88.6 215 15.25 53.66 0.56 13.6
2023-12-03 08:00:00 2023-12-03 00:00:00 -6.9333 -7.9296 92.6 216 18.25 38.83 1.04 13.6
2023-12-03 09:00:00 2023-12-03 01:00:00 -7.1389 -8.2733 91.6 213 26.18 50.13 0.88 13.6
2023-12-03 10:00:00 2023-12-03 02:00:00 -5.0500 -5.6297 95.7 208 29.68 55.07 1.38 13.5
2023-12-03 11:00:00 2023-12-03 03:00:00 -4.5722 -4.9759 97.0 209 28.19 57.19 2.20 13.5
2023-12-03 12:00:00 2023-12-03 04:00:00 -4.6167 -4.8980 97.9 213 34.98 54.36 2.00 13.5
2023-12-03 13:00:00 2023-12-03 05:00:00 -4.6278 -4.9226 97.8 213 36.55 50.13 2.48 13.4
2023-12-03 14:00:00 2023-12-03 06:00:00 -5.2389 -5.6268 97.1 214 37.44 46.60 2.14 13.4
2023-12-03 15:00:00 2023-12-03 07:00:00 -4.6222 -4.9035 97.9 215 42.13 52.95 2.51 13.4
2023-12-03 16:00:00 2023-12-03 08:00:00 -4.4778 -4.7459 98.0 214 37.80 54.36 8.58 13.3
2023-12-03 17:00:00 2023-12-03 09:00:00 -4.5500 -4.8180 98.0 215 33.88 50.83 20.74 13.3
2023-12-03 18:00:00 2023-12-03 10:00:00 -3.2833 -3.3776 99.3 210 34.67 61.42 86.70 13.4
2023-12-03 19:00:00 2023-12-03 11:00:00 -2.4278 -2.4413 99.9 211 40.34 52.24 96.90 13.5
2023-12-03 20:00:00 2023-12-03 12:00:00 -2.7667 -2.7936 99.8 210 32.28 48.71 96.80 13.6
2023-12-03 21:00:00 2023-12-03 13:00:00 -4.9556 -5.2901 97.5 206 23.92 44.48 308.20 14.9
2023-12-03 22:00:00 2023-12-03 14:00:00 -7.3167 -7.9802 95.0 211 21.79 36.01 250.40 15.1
2023-12-03 23:00:00 2023-12-03 15:00:00 -8.7000 -9.6267 93.0 212 19.48 33.89 88.40 15.0
2023-12-04 00:00:00 2023-12-03 16:00:00 -9.8333 -11.0108 91.1 212 18.49 28.24 16.93 13.9
2023-12-04 01:00:00 2023-12-03 17:00:00 -10.6833 -11.7839 91.6 212 15.72 31.77 0.11 13.8
2023-12-04 02:00:00 2023-12-03 18:00:00 -10.9000 -13.6737 80.0 211 15.45 24.71 0.17 13.8
2023-12-04 03:00:00 2023-12-03 19:00:00 -9.8167 -16.4664 58.3 214 15.18 23.30 0.06 13.7
2023-12-04 04:00:00 2023-12-03 20:00:00 -6.8389 -17.7466 41.6 211 16.82 27.53 0.28 13.7
2023-12-04 05:00:00 2023-12-03 21:00:00 -5.8111 -11.8954 62.2 212 25.64 45.89 0.34 13.7
2023-12-04 06:00:00 2023-12-03 22:00:00 -5.1167 -12.6087 55.7 208 40.14 57.19 0.31 13.6
2023-12-04 07:00:00 2023-12-03 23:00:00 -4.9556 -12.7322 54.5 212 32.40 53.66 0.68 13.6
2023-12-04 08:00:00 2023-12-04 00:00:00 -3.8667 -13.7737 46.1 210 22.65 45.18 0.56 13.6
2023-12-04 09:00:00 2023-12-04 01:00:00 -3.6111 -17.5034 33.2 210 16.17 45.18 0.65 13.5
2023-12-04 10:00:00 2023-12-04 02:00:00 -3.4444 -18.2322 30.9 208 14.95 42.36 0.88 13.5
2023-12-04 11:00:00 2023-12-04 03:00:00 -3.4111 -18.1952 30.9 206 14.07 37.42 0.65 13.5
2023-12-04 12:00:00 2023-12-04 04:00:00 -4.1444 -16.6984 37.0 208 20.69 36.01 0.99 13.4
2023-12-04 13:00:00 2023-12-04 05:00:00 -5.0722 -16.3792 40.7 209 30.78 47.30 1.04 13.4
2023-12-04 14:00:00 2023-12-04 06:00:00 -4.4278 -14.2735 46.2 217 36.88 48.71 0.71 13.4
2023-12-04 15:00:00 2023-12-04 07:00:00 -2.1444 -2.1444 100.0 214 47.69 60.01 1.58 13.3
2023-12-04 16:00:00 2023-12-04 08:00:00 -1.7222 -1.7222 100.0 212 43.77 56.48 10.64 13.3
2023-12-04 17:00:00 2023-12-04 09:00:00 -1.1889 -1.1889 100.0 211 35.16 45.18 15.71 13.3
2023-12-04 18:00:00 2023-12-04 10:00:00 -1.5667 -1.5667 100.0 210 6.59 38.83 56.51 13.3
2023-12-04 19:00:00 2023-12-04 11:00:00 -1.0000 -1.0000 100.0 205 0.00 0.00 66.29 13.4
2023-12-04 20:00:00 2023-12-04 12:00:00 -0.9778 -0.9778 100.0 212 0.00 0.00 43.19 13.4
2023-12-04 21:00:00 2023-12-04 13:00:00 -1.0556 -1.0556 100.0 211 0.00 0.00 29.99 13.5
2023-12-04 22:00:00 2023-12-04 14:00:00 -2.5278 -2.5548 99.8 213 0.00 0.00 23.72 13.5
2023-12-04 23:00:00 2023-12-04 15:00:00 -0.8500 -0.8500 100.0 212 0.00 0.00 17.60 13.4
2023-12-05 00:00:00 2023-12-04 16:00:00 -0.7778 -0.7778 100.0 211 0.00 0.00 6.07 13.4
2023-12-05 01:00:00 2023-12-04 17:00:00 -0.7611 -0.7611 100.0 214 0.00 0.00 2.60 13.3
2023-12-05 02:00:00 2023-12-04 18:00:00 -0.5444 -0.5444 100.0 210 0.00 0.00 2.48 13.3
2023-12-05 03:00:00 2023-12-04 19:00:00 -0.2667 -0.2667 100.0 214 0.00 0.00 2.29 13.3
2023-12-05 04:00:00 2023-12-04 20:00:00 -0.1389 -0.1389 100.0 213 0.00 0.00 2.57 13.2
2023-12-05 05:00:00 2023-12-04 21:00:00 -0.1667 -0.1667 100.0 214 0.00 0.00 2.60 13.2
2023-12-05 06:00:00 2023-12-04 22:00:00 -0.1389 -0.1389 100.0 214 0.00 0.00 2.68 13.2
2023-12-05 07:00:00 2023-12-04 23:00:00 -0.1389 -0.1389 100.0 208 0.00 0.00 2.82 13.1
2023-12-05 08:00:00 2023-12-05 00:00:00 -0.2111 -0.2111 100.0 213 0.00 0.00 2.82 13.1
2023-12-05 09:00:00 2023-12-05 01:00:00 -0.5722 -0.5722 100.0 209 0.00 0.00 2.60 13.1
2023-12-05 10:00:00 2023-12-05 02:00:00 -0.8722 -0.8722 100.0 212 0.00 0.00 2.74 13.1
2023-12-05 11:00:00 2023-12-05 03:00:00 -1.1444 -1.1444 100.0 210 0.00 0.00 2.79 13.0
2023-12-05 12:00:00 2023-12-05 04:00:00 -1.0667 -1.0667 100.0 212 0.00 0.00 2.74 13.0
2023-12-05 13:00:00 2023-12-05 05:00:00 -1.3167 -1.3167 100.0 213 0.00 0.00 2.88 13.0
2023-12-05 14:00:00 2023-12-05 06:00:00 -1.9111 -1.9111 100.0 214 0.00 0.00 2.82 13.0
2023-12-05 15:00:00 2023-12-05 07:00:00 -1.8278 -1.8278 100.0 214 0.00 0.00 2.85 13.0
2023-12-05 16:00:00 2023-12-05 08:00:00 -2.4944 -2.4944 100.0 215 0.00 0.00 6.66 13.0
2023-12-05 17:00:00 2023-12-05 09:00:00 -1.9222 -1.9222 100.0 216 0.00 0.00 23.05 13.0
2023-12-05 18:00:00 2023-12-05 10:00:00 -2.2167 -2.2167 100.0 216 0.00 0.00 49.28 13.0
2023-12-05 19:00:00 2023-12-05 11:00:00 -2.2167 -2.2167 100.0 214 0.00 0.00 68.47 13.0
2023-12-05 20:00:00 2023-12-05 12:00:00 -2.1611 -2.1611 100.0 214 0.00 0.00 70.30 13.1
2023-12-05 21:00:00 2023-12-05 13:00:00 -2.4111 -2.4111 100.0 213 0.00 0.00 70.00 13.1
2023-12-05 22:00:00 2023-12-05 14:00:00 -2.5944 -2.5944 100.0 211 0.00 0.00 47.96 13.2
2023-12-05 23:00:00 2023-12-05 15:00:00 -2.8056 -2.8190 99.9 211 0.00 0.00 24.89 13.1
2023-12-06 00:00:00 2023-12-05 16:00:00 -3.0333 -3.0333 100.0 213 0.00 0.00 8.32 13.1
2023-12-06 01:00:00 2023-12-05 17:00:00 -3.0000 -3.0269 99.8 215 0.00 0.00 2.43 13.1
2023-12-06 02:00:00 2023-12-05 18:00:00 -3.1611 -3.2015 99.7 215 0.00 0.00 2.43 13.0
2023-12-06 03:00:00 2023-12-05 19:00:00 -2.7722 -2.7722 100.0 212 0.00 0.00 2.54 13.0
2023-12-06 04:00:00 2023-12-05 20:00:00 -2.9000 -2.9000 100.0 211 0.00 0.00 2.68 13.0
2023-12-06 05:00:00 2023-12-05 21:00:00 -3.0722 -3.1126 99.7 212 0.00 0.00 2.65 13.0
2023-12-06 06:00:00 2023-12-05 22:00:00 -3.2056 -3.2594 99.6 213 0.00 0.00 2.77 13.0
2023-12-06 07:00:00 2023-12-05 23:00:00 -3.2833 -3.3371 99.6 214 0.00 0.00 2.51 13.0